Time;durP1;ratioP1;P1;durP2;ratioP2;P2;SDS_P1;SDS_P2;PMS_P1;PMS_P2;Temp;Humidity;BMP_temperature;BMP_pressure;BME280_temperature;BME280_humidity;BME280_pressure;Samples;Min_cycle;Max_cycle;Signal;HPM_P1;HPM_P2
2022/05/28 00:01:11;;;;;;;;;8.33;8.33;;;;;32.67;21.28;101900.72;4917229;28;45392;-79
2022/05/28 00:03:37;;;;;;;;;9.00;8.67;;;;;32.72;21.37;101908.72;4917359;28;45444;-79
2022/05/28 00:06:08;;;;;;;;;9.67;9.67;;;;;32.71;21.22;101903.31;4917170;28;45922;-80
2022/05/28 00:08:33;;;;;;;;;12.67;10.00;;;;;32.68;21.88;101885.13;4917086;28;45328;-79
2022/05/28 00:10:59;;;;;;;;;10.67;8.67;;;;;32.61;21.93;101891.94;4917013;28;45428;-79
2022/05/28 00:13:25;;;;;;;;;10.33;10.00;;;;;32.58;21.71;101887.50;4917072;28;45316;-79
2022/05/28 00:15:51;;;;;;;;;10.67;7.00;;;;;32.74;21.62;101897.66;4917231;28;45464;-79
2022/05/28 00:18:16;;;;;;;;;7.00;7.00;;;;;32.71;21.38;101895.97;4916915;28;45478;-79
2022/05/28 00:20:42;;;;;;;;;8.00;8.00;;;;;32.72;21.56;101900.50;4916943;28;45407;-79
2022/05/28 00:23:07;;;;;;;;;4.00;3.00;;;;;32.54;22.06;101896.88;4917227;28;45391;-79
2022/05/28 00:25:33;;;;;;;;;8.67;6.67;;;;;32.67;22.02;101902.56;4917089;28;45433;-79
2022/05/28 00:27:58;;;;;;;;;8.67;8.67;;;;;32.63;21.69;101896.38;4916337;28;45419;-79
2022/05/28 00:30:23;;;;;;;;;11.33;10.33;;;;;32.35;21.98;101888.78;4917054;28;45540;-79
2022/05/28 00:32:49;;;;;;;;;9.00;8.67;;;;;32.24;22.34;101877.50;4916993;28;45398;-79
2022/05/28 00:35:17;;;;;;;;;11.00;11.00;;;;;32.35;22.37;101897.03;4917198;28;45403;-79
2022/05/28 00:37:43;;;;;;;;;10.67;8.33;;;;;32.36;21.73;101896.03;4915607;28;48004;-79
2022/05/28 00:40:26;;;;;;;;;9.67;9.67;;;;;32.34;21.90;101880.63;4916753;28;45379;-79
2022/05/28 00:42:56;;;;;;;;;8.33;8.00;;;;;32.41;21.70;101879.31;4916284;28;45336;-79
2022/05/28 00:45:21;;;;;;;;;12.00;9.33;;;;;32.39;22.36;101878.50;4916599;28;45519;-79
2022/05/28 00:47:51;;;;;;;;;7.33;7.33;;;;;32.37;22.08;101877.72;4916543;28;46034;-79
2022/05/28 00:50:18;;;;;;;;;9.33;6.33;;;;;32.34;21.99;101876.03;4916832;28;45348;-79
2022/05/28 00:52:44;;;;;;;;;6.00;6.00;;;;;32.39;22.33;101886.75;4916702;28;45250;-79
2022/05/28 00:55:11;;;;;;;;;10.00;6.33;;;;;32.46;22.16;101875.34;4916851;28;45503;-79
2022/05/28 00:57:39;;;;;;;;;10.33;7.33;;;;;32.51;22.26;101877.81;4946804;28;47191;-79
2022/05/28 01:00:07;;;;;;;;;8.00;7.00;;;;;32.32;22.09;101876.13;4916455;28;45370;-79
2022/05/28 01:02:45;;;;;;;;;6.67;6.00;;;;;32.20;22.56;101878.66;4916893;28;45563;-79
2022/05/28 01:05:26;;;;;;;;;7.00;7.00;;;;;32.19;22.52;101882.34;4916675;28;45432;-79
2022/05/28 01:07:51;;;;;;;;;2.33;1.67;;;;;32.17;22.68;101882.44;4916366;28;45721;-79
2022/05/28 01:10:17;;;;;;;;;5.67;5.67;;;;;32.28;22.10;101884.63;4916570;28;45420;-79
2022/05/28 01:13:20;;;;;;;;;0.67;0.00;;;;;32.42;21.86;101881.06;4916346;28;45357;-79
2022/05/28 01:16:14;;;;;;;;;6.00;5.67;;;;;32.35;21.95;101865.91;4994958;28;45509;-79
2022/05/28 01:18:46;;;;;;;;;6.00;6.00;;;;;32.31;22.10;101870.72;4989017;28;46345;-79
2022/05/28 01:21:23;;;;;;;;;10.00;5.33;;;;;32.43;22.36;101886.50;4978134;28;45505;-79
2022/05/28 01:23:55;;;;;;;;;7.67;7.33;;;;;32.09;22.28;101844.38;4978280;28;45408;-79
2022/05/28 01:26:42;;;;;;;;;8.33;7.67;;;;;32.11;22.52;101869.91;4994242;28;45532;-79
2022/05/28 01:29:10;;;;;;;;;7.67;7.67;;;;;31.90;22.38;101851.84;4977865;28;48017;-79
2022/05/28 01:31:37;;;;;;;;;6.00;5.67;;;;;31.94;22.79;101861.69;4994544;28;45435;-79
2022/05/28 01:34:06;;;;;;;;;8.00;6.00;;;;;31.71;23.06;101830.88;4994542;28;45266;-79
2022/05/28 01:36:34;;;;;;;;;6.67;6.67;;;;;31.78;23.16;101847.91;4994738;28;45378;-79
2022/05/28 01:39:00;;;;;;;;;7.67;6.67;;;;;31.71;22.33;101839.09;4977624;28;47296;-79
2022/05/28 01:41:29;;;;;;;;;7.00;7.00;;;;;31.93;22.97;101855.31;4977600;28;45464;-79
2022/05/28 01:43:56;;;;;;;;;7.00;7.00;;;;;31.92;22.37;101834.31;4977764;28;45666;-79
2022/05/28 01:46:27;;;;;;;;;7.33;7.00;;;;;32.06;22.22;101861.03;4994588;28;45389;-79
2022/05/28 01:48:54;;;;;;;;;5.33;5.33;;;;;31.87;22.46;101846.53;4977330;28;47599;-79
2022/05/28 01:51:23;;;;;;;;;8.33;6.33;;;;;31.95;22.69;101858.84;4972440;28;45453;-79
2022/05/28 01:54:08;;;;;;;;;7.00;6.00;;;;;31.90;22.35;101854.59;4916144;28;45452;-79
2022/05/28 01:56:42;;;;;;;;;7.33;7.33;;;;;32.03;22.70;101855.72;4915719;28;45373;-79
2022/05/28 01:59:08;;;;;;;;;6.33;5.33;;;;;31.96;22.55;101826.81;4914440;28;46237;-79
2022/05/28 02:01:33;;;;;;;;;5.00;5.00;;;;;31.98;22.33;101824.88;4915823;28;45502;-79
2022/05/28 02:04:01;;;;;;;;;7.00;7.00;;;;;32.23;22.29;101857.38;4915927;28;45416;-79
2022/05/28 02:06:27;;;;;;;;;7.33;7.33;;;;;32.26;22.29;101840.72;4916034;28;45380;-79
2022/05/28 02:08:55;;;;;;;;;5.00;4.33;;;;;32.14;22.67;101825.84;4915348;28;45439;-79
2022/05/28 02:11:36;;;;;;;;;7.33;6.67;;;;;32.12;22.66;101807.63;4915693;28;45491;-79
2022/05/28 02:14:11;;;;;;;;;6.00;5.33;;;;;32.40;22.64;101839.09;4915904;28;45504;-79
2022/05/28 02:16:42;;;;;;;;;8.33;8.33;;;;;32.23;21.99;101834.53;4915877;28;45399;-79
2022/05/28 02:19:18;;;;;;;;;8.00;6.33;;;;;32.02;23.08;101811.88;4915577;28;45573;-79
2022/05/28 02:21:51;;;;;;;;;7.33;7.33;;;;;32.06;22.98;101827.22;4915277;28;45503;-79
2022/05/28 02:24:23;;;;;;;;;9.00;7.33;;;;;31.89;22.95;101828.13;4915307;28;45524;-79
2022/05/28 02:26:52;;;;;;;;;9.33;7.33;;;;;32.10;22.59;101840.66;4915663;28;45436;-79
2022/05/28 02:29:19;;;;;;;;;6.67;6.00;;;;;32.02;23.19;101806.38;4915314;28;46338;-79
2022/05/28 02:31:49;;;;;;;;;10.00;7.00;;;;;32.11;22.87;101815.00;4914296;28;45732;-79
2022/05/28 02:34:15;;;;;;;;;6.00;6.00;;;;;32.09;22.70;101827.03;4915648;28;45368;-79
2022/05/28 02:36:41;;;;;;;;;7.33;6.00;;;;;32.07;23.02;101816.13;4914263;28;45679;-79
2022/05/28 02:39:08;;;;;;;;;8.67;6.00;;;;;31.96;23.19;101799.38;4913758;28;47114;-79
2022/05/28 02:41:33;;;;;;;;;8.33;7.33;;;;;31.81;23.25;101812.06;4915372;28;45377;-79
2022/05/28 02:43:59;;;;;;;;;8.00;6.33;;;;;31.75;23.25;101818.78;4915194;28;46001;-79
2022/05/28 02:46:24;;;;;;;;;8.33;5.67;;;;;31.77;23.09;101799.47;4915640;28;45328;-79
2022/05/28 02:48:50;;;;;;;;;6.67;6.67;;;;;31.85;22.98;101796.34;4915056;28;46174;-79
2022/05/28 02:51:19;;;;;;;;;7.67;6.33;;;;;32.01;22.78;101824.72;4915329;28;45435;-79
2022/05/28 02:53:45;;;;;;;;;8.33;7.00;;;;;31.94;23.35;101801.31;4915049;28;45309;-79
2022/05/28 02:56:10;;;;;;;;;7.00;6.67;;;;;31.85;22.70;101793.59;4915006;28;45293;-79
2022/05/28 02:58:36;;;;;;;;;5.00;5.00;;;;;31.89;23.41;101797.94;4915093;28;46263;-79
2022/05/28 03:01:02;;;;;;;;;8.33;7.33;;;;;31.94;23.58;101820.50;4914060;28;45432;-79
2022/05/28 03:03:28;;;;;;;;;8.00;7.00;;;;;31.91;22.98;101816.09;4915242;28;45369;-79
2022/05/28 03:05:53;;;;;;;;;6.33;6.33;;;;;31.91;22.78;101820.69;4915010;28;45456;-79
2022/05/28 03:08:19;;;;;;;;;6.00;6.00;;;;;31.90;23.12;101816.16;4914684;28;45427;-79
2022/05/28 03:10:45;;;;;;;;;5.33;5.33;;;;;31.91;23.24;101806.97;4914970;28;45424;-79
2022/05/28 03:13:11;;;;;;;;;6.33;6.00;;;;;31.99;23.14;101819.28;4915082;28;45325;-79
2022/05/28 03:15:37;;;;;;;;;10.67;7.00;;;;;31.87;22.98;101810.84;4914840;28;45542;-79
2022/05/28 03:18:02;;;;;;;;;8.00;8.00;;;;;31.67;22.92;101788.13;4914493;28;45672;-79
2022/05/28 03:20:29;;;;;;;;;6.67;6.33;;;;;31.70;22.89;101795.28;4914953;28;45612;-79
2022/05/28 03:22:55;;;;;;;;;7.67;7.67;;;;;31.91;22.83;101804.22;4914427;28;45331;-79
2022/05/28 03:25:23;;;;;;;;;8.00;7.33;;;;;31.83;23.04;101792.78;4914876;28;45521;-79
2022/05/28 03:27:48;;;;;;;;;6.33;6.33;;;;;31.83;23.07;101793.69;4913032;28;47665;-79
2022/05/28 03:30:14;;;;;;;;;10.67;6.00;;;;;31.78;23.31;101807.63;4913261;28;45707;-79
2022/05/28 03:32:39;;;;;;;;;5.67;5.67;;;;;31.68;23.46;101806.34;4913635;28;45321;-79
2022/05/28 03:35:06;;;;;;;;;7.67;7.00;;;;;31.67;23.20;101810.06;4914700;28;45523;-80
2022/05/28 03:37:31;;;;;;;;;6.00;6.00;;;;;31.64;23.61;101805.66;4914266;28;46342;-79
2022/05/28 03:39:56;;;;;;;;;8.00;7.00;;;;;31.59;23.21;101801.34;4914469;28;45518;-78
2022/05/28 03:42:22;;;;;;;;;7.00;7.00;;;;;31.58;23.69;101800.47;4914750;28;45422;-80
2022/05/28 03:44:47;;;;;;;;;10.67;8.00;;;;;31.46;23.52;101807.47;4914377;28;45515;-80
2022/05/28 03:47:13;;;;;;;;;10.00;7.33;;;;;31.52;23.44;101810.84;4914297;28;45323;-79
2022/05/28 03:49:41;;;;;;;;;7.00;7.00;;;;;31.62;23.65;101817.66;4914549;28;45526;-79
2022/05/28 03:52:07;;;;;;;;;7.00;7.00;;;;;31.57;23.81;101795.03;4914033;28;45466;-79
2022/05/28 03:54:32;;;;;;;;;8.67;7.33;;;;;31.67;23.59;101811.94;4914435;28;45481;-79
2022/05/28 03:57:08;;;;;;;;;7.67;6.33;;;;;31.81;23.21;101821.19;4913912;28;45423;-79
2022/05/28 03:59:34;;;;;;;;;7.67;6.00;;;;;31.74;23.56;101795.03;4914304;28;45414;-79
2022/05/28 04:02:00;;;;;;;;;7.00;7.00;;;;;31.80;23.43;101821.25;4914089;28;45451;-79
2022/05/28 04:04:26;;;;;;;;;9.00;8.00;;;;;31.66;23.06;101801.91;4914552;28;45260;-79
2022/05/28 04:06:52;;;;;;;;;7.00;7.00;;;;;31.76;23.36;101831.53;4913607;28;45463;-79
2022/05/28 04:09:17;;;;;;;;;9.00;8.00;;;;;31.33;23.32;101778.91;4914071;28;45320;-81
2022/05/28 04:11:42;;;;;;;;;7.00;7.00;;;;;31.47;23.43;101828.41;4913237;28;45934;-81
2022/05/28 04:14:08;;;;;;;;;10.00;8.00;;;;;31.35;23.65;101817.22;4917053;28;45586;-81
2022/05/28 04:16:34;;;;;;;;;11.00;8.67;;;;;31.16;23.78;101809.06;4917220;28;46238;-81
2022/05/28 04:18:59;;;;;;;;;9.67;7.67;;;;;31.30;23.79;101833.91;4916950;28;45362;-80
2022/05/28 04:21:24;;;;;;;;;8.33;8.33;;;;;31.30;23.72;101821.06;4915403;28;45401;-80
2022/05/28 04:23:50;;;;;;;;;11.00;9.67;;;;;31.41;23.23;101820.53;4917159;28;45221;-79
2022/05/28 04:26:15;;;;;;;;;11.00;10.00;;;;;31.54;23.64;101819.91;4916845;28;45456;-79
2022/05/28 04:28:41;;;;;;;;;12.33;8.00;;;;;31.78;23.39;101854.28;4916861;28;45489;-80
2022/05/28 04:31:06;;;;;;;;;9.33;8.00;;;;;31.83;23.53;101851.31;4916983;28;45362;-80
2022/05/28 04:33:32;;;;;;;;;9.33;6.00;;;;;31.71;23.61;101824.50;4917076;28;45396;-80
2022/05/28 04:35:57;;;;;;;;;7.00;7.00;;;;;31.63;23.80;101841.38;4916474;28;46342;-79
2022/05/28 04:38:23;;;;;;;;;7.67;7.67;;;;;31.50;23.77;101848.44;4917028;28;45443;-79
2022/05/28 04:40:49;;;;;;;;;11.00;9.00;;;;;31.42;23.34;101843.34;4916856;28;45565;-79
2022/05/28 04:43:14;;;;;;;;;8.33;8.00;;;;;31.23;23.57;101840.69;4916666;28;45439;-80
2022/05/28 04:45:39;;;;;;;;;10.67;9.67;;;;;31.05;23.68;101817.81;4916617;28;51213;-79
2022/05/28 04:48:05;;;;;;;;;15.67;11.00;;;;;31.05;24.25;101828.78;4916354;28;45547;-80
2022/05/28 04:50:31;;;;;;;;;9.67;9.67;;;;;31.17;24.13;101849.19;4916568;28;45431;-79
2022/05/28 04:52:56;;;;;;;;;11.00;10.33;;;;;31.13;23.77;101840.25;4915408;28;45651;-79
2022/05/28 04:55:22;;;;;;;;;13.67;9.00;;;;;31.08;23.63;101845.06;4916650;28;45415;-79
2022/05/28 04:57:48;;;;;;;;;15.33;10.00;;;;;31.07;24.00;101855.16;4916567;28;45447;-79
2022/05/28 05:00:17;;;;;;;;;14.67;10.00;;;;;31.13;23.97;101857.59;4916421;28;45479;-79
2022/05/28 05:02:42;;;;;;;;;12.00;11.00;;;;;31.04;24.18;101816.03;4916320;28;45416;-79
2022/05/28 05:05:08;;;;;;;;;8.67;8.67;;;;;31.25;23.85;101849.69;4916393;28;45348;-79
2022/05/28 05:07:34;;;;;;;;;11.00;10.00;;;;;31.18;23.41;101849.16;4915232;28;45378;-79
2022/05/28 05:09:59;;;;;;;;;13.00;10.33;;;;;31.02;24.04;101835.31;4915210;28;45912;-79
2022/05/28 05:12:25;;;;;;;;;7.00;7.00;;;;;31.10;23.75;101846.78;4916704;28;45395;-79
2022/05/28 05:14:50;;;;;;;;;8.00;8.00;;;;;30.93;23.59;101813.84;4916352;28;45412;-79
2022/05/28 05:17:15;;;;;;;;;8.00;7.33;;;;;31.12;23.91;101855.81;4915791;28;45273;-80
2022/05/28 05:19:41;;;;;;;;;11.33;10.00;;;;;31.13;23.69;101846.63;4916630;28;45297;-80
2022/05/28 05:22:06;;;;;;;;;10.00;9.33;;;;;30.95;23.68;101826.47;4916348;28;45386;-80
2022/05/28 05:24:33;;;;;;;;;9.00;9.00;;;;;31.17;23.87;101866.56;4915643;28;46648;-79
2022/05/28 05:27:00;;;;;;;;;11.00;10.00;;;;;31.22;23.96;101864.44;4916065;28;45232;-79
2022/05/28 05:29:25;;;;;;;;;8.00;8.00;;;;;31.19;23.47;101844.53;4916263;28;45442;-79
2022/05/28 05:31:51;;;;;;;;;13.00;10.00;;;;;31.10;23.60;101852.25;4914802;28;45267;-79
2022/05/28 05:34:16;;;;;;;;;12.33;10.00;;;;;30.95;23.54;101815.50;4915855;28;45371;-79
2022/05/28 05:36:41;;;;;;;;;10.00;10.00;;;;;31.30;23.81;101845.75;4916170;28;45461;-79
2022/05/28 05:39:08;;;;;;;;;12.67;10.00;;;;;31.20;23.85;101838.09;4916016;28;45423;-79
2022/05/28 05:41:38;;;;;;;;;8.00;8.00;;;;;31.43;23.85;101851.50;4914844;28;45433;-79
2022/05/28 05:44:04;;;;;;;;;9.33;8.33;;;;;31.36;23.81;101827.22;4915955;28;46586;-79
2022/05/28 05:46:29;;;;;;;;;9.33;8.67;;;;;31.25;23.74;101831.41;4915954;28;45397;-80
2022/05/28 05:48:54;;;;;;;;;9.67;9.33;;;;;31.26;23.18;101844.13;4916321;28;45477;-80
2022/05/28 05:51:20;;;;;;;;;10.67;9.67;;;;;31.32;23.33;101831.97;4915886;28;45530;-79
2022/05/28 05:53:45;;;;;;;;;8.33;7.67;;;;;31.65;23.58;101847.69;4916185;28;46878;-79
2022/05/28 05:56:11;;;;;;;;;9.67;9.67;;;;;31.60;23.04;101853.41;4915784;28;45409;-79
2022/05/28 05:58:36;;;;;;;;;9.67;9.67;;;;;31.52;23.03;101846.50;4916131;28;45407;-79
2022/05/28 06:01:04;;;;;;;;;9.00;8.00;;;;;31.62;23.73;101856.94;4915630;28;45575;-79
2022/05/28 06:03:29;;;;;;;;;11.33;9.00;;;;;31.52;23.51;101836.44;4915989;28;45428;-80
2022/05/28 06:05:56;;;;;;;;;11.00;10.67;;;;;31.54;23.12;101844.56;4915866;28;45397;-80
2022/05/28 06:08:22;;;;;;;;;11.00;11.00;;;;;31.70;23.49;101864.78;4915740;28;45432;-78
2022/05/28 06:10:47;;;;;;;;;12.33;11.00;;;;;31.55;23.70;101838.13;4915708;28;45257;-79
2022/05/28 06:13:12;;;;;;;;;10.33;10.00;;;;;31.46;23.34;101839.47;4915647;28;45437;-78
2022/05/28 06:15:38;;;;;;;;;11.67;10.67;;;;;31.42;23.88;101857.97;4915528;28;45388;-78
2022/05/28 06:18:03;;;;;;;;;11.00;10.00;;;;;31.38;23.67;101867.31;4915647;28;45395;-78
2022/05/28 06:20:30;;;;;;;;;12.00;11.00;;;;;31.42;23.98;101859.78;4915744;28;45440;-79
2022/05/28 06:22:55;;;;;;;;;10.67;10.00;;;;;31.39;23.86;101846.25;4915574;28;45427;-78
2022/05/28 06:25:21;;;;;;;;;9.33;9.33;;;;;31.17;23.51;101830.91;4915350;28;45390;-80
2022/05/28 06:27:46;;;;;;;;;13.67;10.67;;;;;31.39;23.46;101860.88;4915631;28;45439;-77
2022/05/28 06:30:12;;;;;;;;;11.00;11.00;;;;;31.32;23.96;101848.41;4915311;28;45380;-78
2022/05/28 06:32:37;;;;;;;;;11.67;10.33;;;;;31.38;23.84;101839.88;4915401;28;46336;-78
2022/05/28 06:35:03;;;;;;;;;10.33;10.33;;;;;31.47;23.55;101842.13;4915211;28;45514;-79
2022/05/28 06:37:29;;;;;;;;;10.33;9.33;;;;;31.48;23.37;101819.25;4915200;28;45517;-76
2022/05/28 06:39:54;;;;;;;;;9.33;9.33;;;;;31.79;23.22;101853.31;4915737;28;45427;-75
2022/05/28 06:42:19;;;;;;;;;12.00;10.67;;;;;31.92;23.45;101870.00;4915296;28;45461;-77
2022/05/28 06:44:45;;;;;;;;;10.00;9.00;;;;;31.86;23.18;101842.03;4914941;28;45443;-78
2022/05/28 06:47:10;;;;;;;;;14.00;11.00;;;;;31.87;23.54;101849.25;4915401;28;45475;-78
2022/05/28 06:49:35;;;;;;;;;10.33;9.00;;;;;31.90;23.95;101844.50;4914117;28;45492;-76
2022/05/28 06:52:01;;;;;;;;;12.67;10.00;;;;;31.85;23.58;101799.06;4913800;28;46362;-83
2022/05/28 06:54:27;;;;;;;;;9.67;9.00;;;;;32.09;23.26;101807.81;4913951;28;45381;-73
2022/05/28 06:56:52;;;;;;;;;9.67;9.00;;;;;32.41;23.44;101849.13;4915106;28;45396;-78
2022/05/28 06:59:18;;;;;;;;;11.00;10.00;;;;;32.46;23.04;101857.97;4914689;28;45431;-79
2022/05/28 07:01:43;;;;;;;;;17.67;12.00;;;;;32.20;23.21;101846.56;4915182;28;45392;-76
2022/05/28 07:04:08;;;;;;;;;11.67;10.00;;;;;32.11;23.20;101828.72;4913630;28;45402;-76
2022/05/28 07:06:34;;;;;;;;;9.67;9.33;;;;;32.06;23.42;101838.19;4913858;28;45441;-76
2022/05/28 07:08:59;;;;;;;;;9.00;8.67;;;;;32.08;23.79;101853.59;4913854;28;45280;-77
2022/05/28 07:11:25;;;;;;;;;12.33;8.67;;;;;32.03;23.66;101838.38;4919121;28;45743;-76
2022/05/28 07:13:50;;;;;;;;;15.33;12.33;;;;;32.01;24.11;101832.06;4933797;28;45549;-77
2022/05/28 07:16:16;;;;;;;;;15.67;10.67;;;;;32.17;23.84;101848.59;4934120;28;45554;-78
2022/05/28 07:18:42;;;;;;;;;13.33;10.67;;;;;32.06;23.69;101844.56;4925593;28;45465;-77
2022/05/28 07:21:09;;;;;;;;;10.00;10.00;;;;;31.92;23.92;101853.53;4924264;28;46318;-76
2022/05/28 07:23:35;;;;;;;;;14.33;12.00;;;;;31.67;24.29;101821.03;4925151;28;45532;-77
2022/05/28 07:26:05;;;;;;;;;15.67;11.33;;;;;31.90;23.92;101843.59;4945551;28;45341;-83
2022/05/28 07:28:33;;;;;;;;;14.00;11.00;;;;;31.80;23.87;101811.19;4939536;28;45459;-77
2022/05/28 07:30:59;;;;;;;;;12.33;11.00;;;;;32.19;23.95;101839.31;4895883;28;45522;-76
2022/05/28 07:33:26;;;;;;;;;12.67;11.00;;;;;31.99;24.08;101813.78;4914225;28;45538;-78
2022/05/28 07:35:54;;;;;;;;;12.33;10.33;;;;;32.07;23.51;101840.84;4914920;28;45467;-77
2022/05/28 07:38:20;;;;;;;;;11.33;10.00;;;;;31.87;24.07;101809.00;4921724;28;45588;-81
2022/05/28 07:40:46;;;;;;;;;12.33;10.67;;;;;31.96;23.67;101794.75;4945177;28;46227;-79
2022/05/28 07:43:12;;;;;;;;;8.67;7.67;;;;;32.34;23.71;101839.44;4926880;28;45595;-77
2022/05/28 07:45:43;;;;;;;;;11.67;11.00;;;;;32.40;23.57;101828.97;4925623;28;45499;-82
2022/05/28 07:48:09;;;;;;;;;12.67;9.00;;;;;32.37;23.52;101789.84;4928417;28;45511;-77
2022/05/28 07:50:35;;;;;;;;;13.00;11.00;;;;;32.51;23.34;101833.88;4936446;28;45626;-76
2022/05/28 07:53:01;;;;;;;;;12.00;11.33;;;;;32.25;23.31;101825.25;4911835;28;45176;-77
2022/05/28 07:55:28;;;;;;;;;11.00;10.00;;;;;32.20;23.66;101826.47;4921315;28;45432;-76
2022/05/28 07:57:54;;;;;;;;;16.00;12.67;;;;;32.52;23.76;101829.25;4916889;28;45430;-76
2022/05/28 08:00:19;;;;;;;;;9.67;9.00;;;;;32.49;23.60;101828.47;4915732;28;48126;-76
2022/05/28 08:02:45;;;;;;;;;11.33;10.00;;;;;32.77;23.41;101826.94;4917135;28;45589;-76
2022/05/28 08:05:11;;;;;;;;;10.00;5.00;;;;;32.87;22.88;101812.63;4917046;28;45431;-76
2022/05/28 08:07:36;;;;;;;;;11.33;10.33;;;;;32.96;22.96;101815.72;4917308;28;45486;-76
2022/05/28 08:10:03;;;;;;;;;11.00;9.33;;;;;33.05;22.89;101816.16;4917052;28;45424;-76
2022/05/28 08:12:29;;;;;;;;;9.00;9.00;;;;;32.91;23.21;101773.00;4916831;28;45412;-76
2022/05/28 08:14:54;;;;;;;;;10.67;9.67;;;;;33.13;22.69;101814.72;4915883;28;45450;-76
2022/05/28 08:17:19;;;;;;;;;12.00;8.67;;;;;33.09;22.44;101804.00;4916995;28;45419;-76
2022/05/28 08:19:45;;;;;;;;;11.33;9.67;;;;;33.24;22.06;101811.38;4917094;28;45446;-76
2022/05/28 08:24:54;;;;;;;;;12.00;9.00;;;;;33.04;22.22;101818.03;4917217;28;45381;-76
2022/05/28 08:27:19;;;;;;;;;10.33;10.33;;;;;32.88;22.31;101815.28;4916300;28;45329;-77
2022/05/28 08:29:44;;;;;;;;;10.00;7.33;;;;;32.96;22.87;101810.22;4916903;28;45310;-76
2022/05/28 08:32:12;;;;;;;;;12.67;8.33;;;;;33.22;21.93;101804.16;4916965;28;45305;-76
2022/05/28 08:34:38;;;;;;;;;7.00;7.00;;;;;33.43;22.17;101815.75;4917184;28;45399;-76
2022/05/28 08:37:03;;;;;;;;;11.00;7.67;;;;;33.45;22.00;101792.66;4917104;28;45368;-76
2022/05/28 08:39:29;;;;;;;;;7.33;7.33;;;;;33.44;21.61;101788.13;4916448;28;45414;-76
2022/05/28 08:41:59;;;;;;;;;11.00;10.33;;;;;33.59;21.70;101815.72;4916425;28;45414;-76
2022/05/28 08:44:28;;;;;;;;;10.67;9.00;;;;;33.45;20.90;101820.19;4916631;28;45246;-76
2022/05/28 08:47:01;;;;;;;;;9.33;8.33;;;;;33.47;21.31;101812.72;4916725;28;45527;-76
2022/05/28 08:49:28;;;;;;;;;13.00;9.67;;;;;33.13;21.15;101813.84;4916422;28;45482;-76
2022/05/28 08:51:53;;;;;;;;;9.67;8.00;;;;;33.32;21.20;101814.53;4915396;28;45321;-76
2022/05/28 08:54:36;;;;;;;;;10.67;8.67;;;;;33.34;21.24;101812.56;4916718;28;45369;-76
2022/05/28 08:57:09;;;;;;;;;11.00;8.67;;;;;33.38;20.90;101795.91;4916250;28;45401;-76
2022/05/28 08:59:40;;;;;;;;;11.33;10.00;;;;;33.54;20.61;101780.19;4915322;28;45766;-76
2022/05/28 09:02:11;;;;;;;;;6.67;6.67;;;;;33.50;20.05;101779.53;4916478;28;45476;-76
2022/05/28 09:04:40;;;;;;;;;7.67;7.67;;;;;33.59;20.68;101794.56;4915321;28;45484;-76
2022/05/28 09:07:10;;;;;;;;;8.00;5.00;;;;;33.64;20.51;101778.66;4916495;28;45332;-76
2022/05/28 09:09:44;;;;;;;;;11.67;10.00;;;;;33.81;20.97;101794.16;4915933;28;45462;-76
2022/05/28 09:12:17;;;;;;;;;8.33;6.67;;;;;33.81;20.20;101772.13;4916316;28;45418;-76
2022/05/28 09:14:42;;;;;;;;;7.00;6.00;;;;;34.05;20.35;101784.41;4916505;28;45298;-76
2022/05/28 09:17:24;;;;;;;;;6.00;4.00;;;;;34.24;20.23;101795.13;4916373;28;45455;-76
2022/05/28 09:19:51;;;;;;;;;5.00;5.00;;;;;34.32;19.78;101779.03;4916216;28;45446;-76
2022/05/28 09:22:18;;;;;;;;;6.00;6.00;;;;;34.28;19.63;101791.19;4916084;28;45399;-76
2022/05/28 09:24:43;;;;;;;;;7.33;7.00;;;;;34.22;20.15;101766.78;4916027;28;45386;-76
2022/05/28 09:27:32;;;;;;;;;8.33;6.00;;;;;34.38;20.09;101781.38;4915974;28;45362;-76
2022/05/28 09:30:38;;;;;;;;;11.67;7.00;;;;;34.61;20.29;101767.94;4916148;28;46528;-76
2022/05/28 09:33:24;;;;;;;;;5.00;4.67;;;;;34.88;20.05;101778.97;4916303;28;45440;-76
2022/05/28 09:35:57;;;;;;;;;6.33;6.00;;;;;34.91;20.02;101775.13;4915181;28;45548;-76
2022/05/28 09:38:38;;;;;;;;;7.00;6.67;;;;;35.14;19.37;101784.59;4915824;28;45475;-77
2022/05/28 09:41:22;;;;;;;;;8.67;6.67;;;;;35.18;19.18;101776.00;4915877;28;45475;-76
2022/05/28 09:44:10;;;;;;;;;7.67;6.67;;;;;35.12;19.54;101778.28;4914705;28;45846;-76
2022/05/28 09:46:41;;;;;;;;;5.00;5.00;;;;;35.24;19.03;101754.50;4955020;28;45589;-76
2022/05/28 09:49:21;;;;;;;;;7.00;7.00;;;;;35.30;19.41;101756.81;4955355;28;45435;-76
2022/05/28 09:51:57;;;;;;;;;6.67;6.67;;;;;35.20;20.02;101745.56;4955096;28;45386;-76
2022/05/28 09:54:33;;;;;;;;;8.67;7.67;;;;;35.18;19.22;101755.81;4954810;28;45571;-76
2022/05/28 09:56:58;;;;;;;;;8.00;6.00;;;;;34.96;19.69;101750.91;4955113;28;45880;-76
2022/05/28 09:59:37;;;;;;;;;7.00;6.00;;;;;35.11;19.81;101746.22;4954910;28;45617;-76
2022/05/28 10:02:09;;;;;;;;;6.00;6.00;;;;;35.41;19.63;101739.56;4954824;28;45644;-76
2022/05/28 10:04:55;;;;;;;;;9.33;6.00;;;;;35.52;19.38;101739.66;4954756;28;45455;-77
2022/05/28 10:07:46;;;;;;;;;7.33;5.33;;;;;35.21;18.85;101730.78;4954436;28;45535;-76
2022/05/28 10:10:22;;;;;;;;;5.00;4.33;;;;;34.89;18.83;101717.34;4938200;28;45664;-77
2022/05/28 10:12:48;;;;;;;;;8.00;7.00;;;;;34.90;18.42;101726.53;4954507;28;47103;-77
2022/05/28 10:15:20;;;;;;;;;7.33;6.67;;;;;34.64;18.89;101724.53;4954588;28;45361;-76
2022/05/28 10:18:01;;;;;;;;;9.00;6.67;;;;;34.27;19.36;101706.78;4954484;28;45366;-76
2022/05/28 10:20:27;;;;;;;;;9.33;9.00;;;;;34.36;18.88;101689.66;4954607;28;45455;-76
2022/05/28 10:22:54;;;;;;;;;5.33;4.67;;;;;34.73;19.01;101731.28;4947739;28;45356;-76
2022/05/28 10:25:48;;;;;;;;;8.00;6.00;;;;;34.49;19.21;101712.66;4915333;28;45317;-76
2022/05/28 10:28:27;;;;;;;;;8.00;6.67;;;;;34.67;19.35;101701.34;4916358;28;45378;-76
2022/05/28 10:30:54;;;;;;;;;5.00;5.00;;;;;34.93;18.61;101729.06;4915818;28;45472;-77
2022/05/28 10:33:24;;;;;;;;;5.00;5.00;;;;;34.95;19.33;101714.19;4915222;28;45554;-76
2022/05/28 10:35:50;;;;;;;;;6.00;6.00;;;;;35.26;19.05;101730.44;4914215;28;45389;-76
2022/05/28 10:38:22;;;;;;;;;9.33;7.00;;;;;35.33;18.44;101729.94;4915206;28;45475;-76
2022/05/28 10:40:52;;;;;;;;;7.00;6.00;;;;;35.15;18.43;101723.81;4914189;28;45532;-76
2022/05/28 10:43:32;;;;;;;;;7.67;5.33;;;;;35.14;18.32;101715.66;4915012;28;45483;-76
2022/05/28 10:46:14;;;;;;;;;5.00;3.67;;;;;35.08;18.18;101708.69;4915183;28;45296;-76
2022/05/28 10:48:52;;;;;;;;;4.67;4.67;;;;;35.13;17.70;101716.63;4915395;28;45336;-76
2022/05/28 10:51:56;;;;;;;;;4.67;4.67;;;;;34.69;18.19;101716.81;4913668;28;45582;-77
2022/05/28 10:54:39;;;;;;;;;5.33;5.33;;;;;34.58;18.02;101716.66;4953961;28;45509;-76
2022/05/28 10:57:11;;;;;;;;;7.00;6.00;;;;;34.38;18.43;101709.75;4954049;28;45469;-76
2022/05/28 10:59:58;;;;;;;;;7.33;5.67;;;;;34.44;18.67;101703.81;4954164;28;45571;-76
2022/05/28 11:02:42;;;;;;;;;7.00;5.00;;;;;34.74;18.19;101699.06;4953824;28;45513;-76
2022/05/28 11:05:44;;;;;;;;;6.67;6.00;;;;;34.81;18.60;101700.44;4954132;28;46173;-76
2022/05/28 11:08:38;;;;;;;;;6.00;4.00;;;;;34.73;18.49;101667.88;4954060;28;45482;-76
2022/05/28 11:11:18;;;;;;;;;8.33;5.00;;;;;34.86;18.25;101698.28;4954201;28;45868;-76
2022/05/28 11:14:20;;;;;;;;;5.00;4.00;;;;;34.87;17.96;101689.88;4954006;28;45420;-76
2022/05/28 11:16:52;;;;;;;;;4.33;4.33;;;;;34.91;17.84;101700.69;4953956;28;46539;-76
2022/05/28 11:19:41;;;;;;;;;5.33;5.33;;;;;34.76;18.16;101692.47;4954045;28;45281;-76
2022/05/28 11:22:31;;;;;;;;;6.00;5.00;;;;;34.65;18.35;101686.81;4954323;28;45505;-77
2022/05/28 11:25:05;;;;;;;;;6.33;6.33;;;;;34.61;18.46;101680.63;4957353;28;45799;-76
2022/05/28 11:27:58;;;;;;;;;7.00;5.00;;;;;34.60;17.92;101655.91;4934080;28;48033;-76
2022/05/28 11:30:33;;;;;;;;;4.67;4.00;;;;;34.74;17.84;101666.91;4917645;28;45376;-76
2022/05/28 11:33:21;;;;;;;;;7.67;5.67;;;;;35.00;18.43;101651.31;4917658;28;45435;-76
2022/05/28 11:35:55;;;;;;;;;6.33;5.00;;;;;35.21;17.42;101668.19;4917532;28;45465;-76